Time;durP1;ratioP1;P1;durP2;ratioP2;P2;SDS_P1;SDS_P2;PMS_P1;PMS_P2;Temp;Humidity;BMP_temperature;BMP_pressure;BME280_temperature;BME280_humidity;BME280_pressure;Samples;Min_cycle;Max_cycle;Signal;HPM_P1;HPM_P2
2023/06/19 00:00:34;;;;;;;7.18;6.18;;;20.20;78.50;;;;;;5048654;28;20060;-49
2023/06/19 00:03:02;;;;;;;9.52;7.05;;;20.20;78.60;;;;;;5053293;28;20029;-49
2023/06/19 00:05:28;;;;;;;8.35;7.10;;;20.20;78.50;;;;;;5053494;28;20029;-50
2023/06/19 00:07:56;;;;;;;7.53;6.82;;;20.20;78.60;;;;;;5049839;28;20033;-49
2023/06/19 00:10:24;;;;;;;7.20;6.50;;;20.20;78.90;;;;;;5051992;28;20029;-52
2023/06/19 00:12:52;;;;;;;7.55;6.75;;;20.20;79.00;;;;;;5052376;28;20282;-48
2023/06/19 00:15:18;;;;;;;8.35;6.20;;;20.20;78.90;;;;;;5049928;28;20041;-50
2023/06/19 00:17:45;;;;;;;8.02;7.15;;;20.20;78.90;;;;;;5045162;28;20052;-51
2023/06/19 00:20:13;;;;;;;8.23;7.38;;;20.10;78.90;;;;;;5050075;28;20028;-48
2023/06/19 00:22:42;;;;;;;7.00;6.30;;;20.10;78.90;;;;;;5054065;28;20049;-48
2023/06/19 00:25:11;;;;;;;8.25;6.50;;;20.10;78.90;;;;;;5030618;28;20382;-48
2023/06/19 00:27:38;;;;;;;8.65;7.85;;;20.00;79.20;;;;;;5033916;28;20363;-49
2023/06/19 00:30:06;;;;;;;8.07;7.28;;;20.00;79.10;;;;;;5051200;28;20029;-53
2023/06/19 00:32:45;;;;;;;9.20;7.53;;;20.10;79.30;;;;;;5031847;28;20064;-50
2023/06/19 00:35:19;;;;;;;8.85;7.95;;;20.00;79.50;;;;;;5021948;28;20022;-49
2023/06/19 00:37:46;;;;;;;7.63;6.93;;;20.00;79.60;;;;;;5033513;28;20087;-49
2023/06/19 00:40:34;;;;;;;8.23;7.03;;;20.10;79.70;;;;;;5039438;28;20135;-50
2023/06/19 00:43:02;;;;;;;8.43;7.63;;;20.10;79.70;;;;;;5035598;28;20516;-51
2023/06/19 00:45:30;;;;;;;8.35;7.43;;;20.10;79.80;;;;;;5030432;28;20372;-54
2023/06/19 00:48:00;;;;;;;8.00;7.30;;;20.10;79.60;;;;;;5051228;28;20029;-51
2023/06/19 00:50:33;;;;;;;10.32;7.70;;;20.20;79.60;;;;;;5052514;28;20025;-51
2023/06/19 00:52:59;;;;;;;8.48;7.25;;;20.20;79.60;;;;;;5049055;28;20467;-50
2023/06/19 00:55:33;;;;;;;8.38;7.57;;;20.20;79.40;;;;;;5019339;28;20147;-50
2023/06/19 00:58:02;;;;;;;10.00;7.35;;;20.20;79.40;;;;;;4997362;28;20100;-50
2023/06/19 01:00:30;;;;;;;8.60;7.50;;;20.20;79.40;;;;;;5046612;28;20034;-50
2023/06/19 01:02:57;;;;;;;8.73;7.82;;;20.20;79.30;;;;;;5053171;28;20021;-49
2023/06/19 01:05:28;;;;;;;9.40;8.20;;;20.20;79.20;;;;;;5052422;28;20027;-50
2023/06/19 01:08:05;;;;;;;8.95;7.47;;;20.30;79.20;;;;;;5053129;28;20029;-52
2023/06/19 01:10:36;;;;;;;8.55;7.63;;;20.30;79.10;;;;;;5050172;28;20033;-49
2023/06/19 01:13:18;;;;;;;8.80;7.90;;;20.30;79.10;;;;;;5051150;28;20025;-51
2023/06/19 01:15:44;;;;;;;9.70;7.07;;;20.30;78.80;;;;;;5034154;28;20045;-50
2023/06/19 01:18:14;;;;;;;9.02;8.13;;;20.30;78.80;;;;;;5032955;28;20021;-49
2023/06/19 01:20:40;;;;;;;8.35;7.55;;;20.20;78.90;;;;;;5030375;28;20112;-49
2023/06/19 01:23:11;;;;;;;8.32;7.45;;;20.20;78.40;;;;;;5050999;28;20028;-49
2023/06/19 01:25:39;;;;;;;8.65;7.72;;;20.20;78.20;;;;;;5048085;28;20382;-50
2023/06/19 01:28:14;;;;;;;10.85;7.65;;;20.20;77.50;;;;;;5052667;28;20366;-49
2023/06/19 01:30:43;;;;;;;8.43;7.47;;;20.20;77.10;;;;;;5027282;28;20033;-49
2023/06/19 01:33:16;;;;;;;8.98;8.13;;;20.20;76.60;;;;;;5049737;28;20051;-48
2023/06/19 01:35:47;;;;;;;8.48;7.75;;;20.20;76.50;;;;;;5047671;28;20071;-49
2023/06/19 01:38:15;;;;;;;8.52;7.72;;;20.20;76.00;;;;;;5051832;28;20128;-50
2023/06/19 01:40:44;;;;;;;8.15;7.35;;;20.20;75.50;;;;;;5039740;28;20024;-48
2023/06/19 01:43:12;;;;;;;10.23;7.38;;;20.20;75.30;;;;;;5049411;28;20032;-49
2023/06/19 01:45:40;;;;;;;10.23;8.18;;;20.30;75.20;;;;;;5046533;28;20036;-48
2023/06/19 01:48:06;;;;;;;7.88;7.13;;;20.20;75.10;;;;;;5052109;28;20044;-48
2023/06/19 01:50:34;;;;;;;8.20;7.40;;;20.30;74.90;;;;;;5051112;28;20724;-49
2023/06/19 01:53:00;;;;;;;8.25;7.45;;;20.30;74.70;;;;;;5046246;28;20113;-48
2023/06/19 01:55:26;;;;;;;8.65;7.15;;;20.30;74.60;;;;;;5051377;28;20029;-48
2023/06/19 01:57:53;;;;;;;8.88;8.07;;;20.30;74.50;;;;;;5045704;28;20029;-48
2023/06/19 02:00:21;;;;;;;9.07;8.13;;;20.30;74.10;;;;;;5048314;28;20115;-49
2023/06/19 02:02:50;;;;;;;8.60;7.80;;;20.30;74.50;;;;;;5050577;28;20083;-48
2023/06/19 02:05:17;;;;;;;8.77;7.88;;;20.20;74.50;;;;;;5048995;28;20036;-48
2023/06/19 02:07:42;;;;;;;9.55;7.13;;;20.20;74.60;;;;;;5033986;28;20427;-49
2023/06/19 02:10:08;;;;;;;8.70;7.10;;;20.20;74.70;;;;;;5042985;28;20049;-48
2023/06/19 02:12:36;;;;;;;7.35;6.65;;;20.20;74.40;;;;;;5032586;28;20057;-49
2023/06/19 02:15:05;;;;;;;8.90;6.78;;;20.10;73.90;;;;;;5038775;28;20057;-50
2023/06/19 02:17:32;;;;;;;8.50;7.70;;;20.20;73.50;;;;;;5029919;28;20026;-48
2023/06/19 02:19:58;;;;;;;8.10;7.30;;;20.10;73.20;;;;;;5020705;28;20032;-48
2023/06/19 02:22:26;;;;;;;8.35;7.55;;;20.10;73.20;;;;;;5051955;28;20021;-50
2023/06/19 02:24:53;;;;;;;8.02;7.18;;;20.10;73.70;;;;;;5044927;28;20036;-50
2023/06/19 02:27:20;;;;;;;8.82;8.00;;;20.10;73.60;;;;;;5052224;28;20021;-48
2023/06/19 02:29:51;;;;;;;8.00;7.20;;;20.10;74.20;;;;;;5042908;28;20044;-50
2023/06/19 02:32:19;;;;;;;9.57;7.97;;;20.00;73.50;;;;;;5047172;28;20477;-50
2023/06/19 02:34:46;;;;;;;8.65;7.63;;;20.00;73.50;;;;;;5039470;28;20033;-49
2023/06/19 02:37:14;;;;;;;8.07;7.38;;;20.10;73.20;;;;;;5034340;28;20043;-49
2023/06/19 02:39:40;;;;;;;7.75;7.05;;;20.00;73.20;;;;;;5036104;28;20043;-48
2023/06/19 02:42:08;;;;;;;9.45;7.47;;;20.00;74.10;;;;;;5041969;28;20110;-52
2023/06/19 02:44:42;;;;;;;9.77;7.93;;;20.00;73.40;;;;;;5035431;28;20025;-49
2023/06/19 02:47:11;;;;;;;8.80;7.82;;;20.00;73.10;;;;;;5032974;28;20104;-49
2023/06/19 02:49:38;;;;;;;8.32;7.53;;;20.00;73.30;;;;;;5034844;28;20470;-48
2023/06/19 02:52:08;;;;;;;9.02;7.88;;;20.00;72.70;;;;;;5034743;28;20025;-49
2023/06/19 02:54:37;;;;;;;8.82;7.70;;;20.00;72.40;;;;;;5032801;28;20095;-49
2023/06/19 02:57:04;;;;;;;9.50;8.15;;;20.00;72.70;;;;;;5032141;28;20060;-48
2023/06/19 02:59:32;;;;;;;10.65;7.88;;;20.00;72.80;;;;;;5035179;28;20025;-52
2023/06/19 03:01:58;;;;;;;9.57;8.43;;;20.00;72.60;;;;;;5032121;28;20025;-48
2023/06/19 03:04:24;;;;;;;10.00;7.60;;;20.00;72.80;;;;;;5018671;28;20036;-48
2023/06/19 03:06:52;;;;;;;8.10;7.30;;;20.00;72.70;;;;;;5017782;28;20057;-50
2023/06/19 03:09:19;;;;;;;11.60;7.95;;;20.00;72.50;;;;;;5039786;28;20033;-48
2023/06/19 03:11:47;;;;;;;9.48;7.57;;;20.00;72.20;;;;;;5055437;28;20024;-49
2023/06/19 03:14:13;;;;;;;10.32;8.18;;;20.00;71.90;;;;;;5054026;28;20775;-48
2023/06/19 03:16:40;;;;;;;10.13;8.40;;;20.00;71.50;;;;;;5047042;28;20083;-48
2023/06/19 03:19:05;;;;;;;8.82;8.00;;;20.10;70.70;;;;;;5053696;28;20083;-49
2023/06/19 03:21:32;;;;;;;8.82;7.85;;;20.10;70.20;;;;;;5053892;28;20500;-48
2023/06/19 03:24:02;;;;;;;8.57;7.65;;;20.10;70.30;;;;;;5037257;28;20045;-48
2023/06/19 03:26:30;;;;;;;7.88;7.07;;;20.10;70.10;;;;;;5033794;28;20075;-49
2023/06/19 03:28:56;;;;;;;9.70;7.53;;;20.10;69.60;;;;;;5034570;28;20518;-49
2023/06/19 03:31:23;;;;;;;8.50;7.63;;;20.10;69.20;;;;;;5031600;28;20018;-50
2023/06/19 03:33:53;;;;;;;10.80;8.57;;;20.10;68.90;;;;;;5053792;28;20362;-48
2023/06/19 03:36:20;;;;;;;8.95;8.05;;;20.20;68.50;;;;;;5037125;28;20025;-48
2023/06/19 03:38:48;;;;;;;12.07;7.53;;;20.20;68.00;;;;;;5047739;28;20028;-48
2023/06/19 03:41:20;;;;;;;9.00;8.07;;;20.20;67.90;;;;;;5053119;28;20048;-50
2023/06/19 03:43:47;;;;;;;9.02;7.03;;;20.30;67.90;;;;;;5052366;28;20068;-48
2023/06/19 03:46:18;;;;;;;9.40;8.50;;;20.30;67.80;;;;;;5047707;28;20024;-50
2023/06/19 03:48:47;;;;;;;11.23;7.78;;;20.30;67.90;;;;;;5052747;28;20055;-48
2023/06/19 03:51:14;;;;;;;10.35;7.43;;;20.30;67.90;;;;;;5054009;28;20036;-48
2023/06/19 03:53:42;;;;;;;8.07;7.28;;;20.40;68.10;;;;;;5047980;28;20120;-49
2023/06/19 03:56:08;;;;;;;8.45;7.45;;;20.40;68.20;;;;;;5054538;28;20017;-48
2023/06/19 03:58:40;;;;;;;9.32;7.15;;;20.40;68.30;;;;;;5054070;28;20049;-49
2023/06/19 04:01:07;;;;;;;8.07;7.13;;;20.40;68.00;;;;;;5027289;28;20045;-49
2023/06/19 04:03:34;;;;;;;7.95;7.15;;;20.40;68.10;;;;;;5039299;28;20025;-48
2023/06/19 04:06:03;;;;;;;8.32;7.53;;;20.40;67.70;;;;;;5044574;28;20049;-48
2023/06/19 04:08:30;;;;;;;7.70;7.00;;;20.40;67.60;;;;;;5030129;28;20029;-48
2023/06/19 04:10:57;;;;;;;8.98;8.07;;;20.40;67.80;;;;;;5047368;28;20036;-49
2023/06/19 04:13:27;;;;;;;8.45;7.55;;;20.40;68.90;;;;;;5053849;28;20131;-49
2023/06/19 04:15:52;;;;;;;8.20;7.43;;;20.30;70.40;;;;;;5043256;28;20041;-47
2023/06/19 04:18:20;;;;;;;9.20;7.75;;;20.10;71.10;;;;;;5031365;28;20079;-47
2023/06/19 04:20:47;;;;;;;9.23;8.32;;;20.00;72.70;;;;;;5045681;28;20024;-47
2023/06/19 04:23:16;;;;;;;8.90;7.30;;;19.90;73.30;;;;;;5044733;28;20036;-47
2023/06/19 04:25:43;;;;;;;8.77;7.55;;;19.90;74.20;;;;;;5036280;28;20098;-47
2023/06/19 04:28:08;;;;;;;8.38;7.57;;;19.80;75.90;;;;;;5047164;28;20036;-46
2023/06/19 04:30:39;;;;;;;8.98;7.55;;;19.70;76.00;;;;;;5050189;28;20032;-47
2023/06/19 04:33:08;;;;;;;9.48;8.57;;;19.70;76.40;;;;;;5013494;28;20172;-47
2023/06/19 04:35:42;;;;;;;8.93;8.10;;;19.60;75.90;;;;;;5019688;28;20026;-47
2023/06/19 04:38:09;;;;;;;8.43;7.65;;;19.60;76.60;;;;;;5039861;28;20454;-50
2023/06/19 04:40:35;;;;;;;8.38;7.57;;;19.60;77.10;;;;;;5053107;28;20110;-47
2023/06/19 04:43:02;;;;;;;8.95;7.97;;;19.60;75.50;;;;;;5052053;28;20398;-48
2023/06/19 04:45:30;;;;;;;8.45;7.38;;;19.60;74.60;;;;;;5046673;28;20471;-47
2023/06/19 04:47:57;;;;;;;8.35;7.55;;;19.70;74.70;;;;;;5031221;28;20037;-49
2023/06/19 04:50:24;;;;;;;8.98;7.53;;;19.80;74.50;;;;;;5030795;28;20704;-48
2023/06/19 04:52:51;;;;;;;8.38;7.50;;;19.90;74.00;;;;;;5031207;28;20018;-47
2023/06/19 04:55:19;;;;;;;9.45;8.20;;;20.00;73.50;;;;;;5037122;28;20025;-49
2023/06/19 04:57:46;;;;;;;9.32;7.55;;;20.20;72.70;;;;;;5031021;28;20216;-49
2023/06/19 05:00:19;;;;;;;8.50;7.22;;;20.40;72.20;;;;;;5047696;28;20029;-49
2023/06/19 05:02:46;;;;;;;9.45;6.80;;;20.40;71.00;;;;;;5023038;28;20445;-48
2023/06/19 05:05:14;;;;;;;7.63;6.75;;;20.60;70.60;;;;;;5045915;28;20033;-50
2023/06/19 05:07:41;;;;;;;8.10;7.15;;;20.70;70.20;;;;;;5047373;28;20031;-48
2023/06/19 05:10:10;;;;;;;9.68;7.43;;;20.80;70.10;;;;;;5015150;28;20460;-53
2023/06/19 05:12:36;;;;;;;6.88;6.18;;;20.90;70.00;;;;;;5032663;28;20029;-48
2023/06/19 05:15:02;;;;;;;8.23;7.40;;;20.90;69.40;;;;;;5030152;28;20060;-48
2023/06/19 05:17:29;;;;;;;9.05;7.53;;;20.90;69.10;;;;;;5030603;28;20446;-49
2023/06/19 05:19:58;;;;;;;6.75;6.05;;;21.00;68.90;;;;;;5028338;28;20104;-48
2023/06/19 05:22:26;;;;;;;10.55;6.85;;;21.00;68.60;;;;;;5043467;28;20061;-48
2023/06/19 05:25:04;;;;;;;8.32;6.53;;;21.10;67.90;;;;;;5032923;28;20336;-49
2023/06/19 05:27:29;;;;;;;7.60;6.90;;;21.20;68.00;;;;;;5030312;28;20099;-51
2023/06/19 05:29:55;;;;;;;7.82;6.45;;;21.10;67.80;;;;;;5025489;28;20045;-48
2023/06/19 05:32:21;;;;;;;11.23;7.07;;;21.20;67.90;;;;;;5034466;28;20040;-49
2023/06/19 05:34:49;;;;;;;8.25;7.22;;;21.30;67.90;;;;;;5029151;28;20021;-48
2023/06/19 05:37:19;;;;;;;8.88;6.95;;;21.40;68.30;;;;;;5029496;28;20076;-51
2023/06/19 05:39:46;;;;;;;10.00;7.25;;;21.40;67.80;;;;;;5016239;28;20711;-49
2023/06/19 05:42:12;;;;;;;9.93;6.78;;;21.50;66.90;;;;;;5030131;28;20064;-48
2023/06/19 05:44:44;;;;;;;7.28;6.38;;;21.70;67.10;;;;;;5047198;28;20495;-49
2023/06/19 05:47:16;;;;;;;6.95;6.25;;;21.80;67.30;;;;;;5032120;28;20025;-48
2023/06/19 05:49:47;;;;;;;7.55;6.50;;;21.90;66.10;;;;;;5032593;28;20033;-48
2023/06/19 05:52:17;;;;;;;7.88;6.80;;;22.00;65.70;;;;;;5033802;28;20121;-49
2023/06/19 05:54:44;;;;;;;7.18;6.47;;;22.10;66.10;;;;;;5036067;28;20100;-48
2023/06/19 05:57:11;;;;;;;7.65;6.95;;;22.20;65.00;;;;;;5029565;28;20051;-49
2023/06/19 05:59:39;;;;;;;7.88;7.07;;;22.20;65.20;;;;;;5028480;28;20080;-48
2023/06/19 06:02:06;;;;;;;8.48;7.07;;;22.40;65.20;;;;;;5031160;28;20033;-49
2023/06/19 06:04:36;;;;;;;8.18;7.05;;;22.40;64.80;;;;;;5029999;28;20036;-52
2023/06/19 06:07:02;;;;;;;7.93;6.70;;;22.70;64.30;;;;;;5033854;28;20026;-48
2023/06/19 06:09:35;;;;;;;8.32;7.53;;;22.80;63.90;;;;;;5031381;28;20052;-51
2023/06/19 06:12:01;;;;;;;8.35;7.00;;;22.80;63.40;;;;;;5032433;28;20117;-49
2023/06/19 06:14:27;;;;;;;7.63;6.45;;;22.70;63.80;;;;;;5031880;28;20128;-53
2023/06/19 06:16:53;;;;;;;8.98;6.75;;;22.60;64.20;;;;;;5010300;28;20033;-51
2023/06/19 06:19:25;;;;;;;8.10;6.78;;;22.60;64.10;;;;;;5031274;28;20033;-48
2023/06/19 06:21:52;;;;;;;7.95;7.07;;;22.40;63.80;;;;;;5038321;28;20037;-51
2023/06/19 06:24:19;;;;;;;8.02;7.18;;;22.40;64.60;;;;;;5034794;28;20029;-49
2023/06/19 06:26:46;;;;;;;7.85;7.05;;;22.40;64.40;;;;;;5029344;28;21835;-49
2023/06/19 06:29:14;;;;;;;9.13;6.97;;;22.40;64.60;;;;;;5030633;28;20044;-51
2023/06/19 06:31:41;;;;;;;7.47;6.78;;;22.30;65.50;;;;;;5034038;28;20329;-51
2023/06/19 06:34:12;;;;;;;9.25;6.95;;;22.40;65.70;;;;;;5024734;28;20499;-49
2023/06/19 06:36:40;;;;;;;8.10;7.30;;;22.40;65.80;;;;;;5049012;28;20030;-49
2023/06/19 06:39:06;;;;;;;9.15;7.47;;;22.50;65.10;;;;;;5039165;28;20044;-53
2023/06/19 06:41:33;;;;;;;8.50;6.53;;;22.50;64.80;;;;;;5033614;28;20040;-49
2023/06/19 06:44:05;;;;;;;9.18;7.18;;;22.60;65.20;;;;;;5034397;28;20355;-49
2023/06/19 06:46:32;;;;;;;8.18;6.50;;;22.60;65.20;;;;;;5028648;28;20124;-50
2023/06/19 06:48:59;;;;;;;7.80;6.97;;;22.70;64.90;;;;;;5032123;28;20519;-50
2023/06/19 06:51:26;;;;;;;8.45;7.05;;;22.90;65.60;;;;;;5028760;28;20049;-51
2023/06/19 06:53:53;;;;;;;8.00;7.03;;;22.90;65.80;;;;;;5039986;28;20037;-48
2023/06/19 06:56:19;;;;;;;7.93;6.88;;;22.90;66.00;;;;;;5015147;28;20095;-48
2023/06/19 06:58:46;;;;;;;8.40;7.50;;;22.90;66.60;;;;;;5035960;28;20624;-50
2023/06/19 07:01:15;;;;;;;11.00;7.78;;;22.90;65.40;;;;;;5041386;28;20470;-51
2023/06/19 07:03:42;;;;;;;8.02;7.22;;;22.90;65.00;;;;;;5045082;28;20061;-49
2023/06/19 07:06:14;;;;;;;8.35;7.50;;;22.90;64.80;;;;;;5034980;28;20104;-48
2023/06/19 07:08:40;;;;;;;10.18;7.32;;;23.00;64.90;;;;;;5032351;28;20030;-50
2023/06/19 07:11:07;;;;;;;10.32;7.72;;;23.20;65.30;;;;;;5029681;28;20030;-50
2023/06/19 07:13:34;;;;;;;8.55;7.20;;;23.30;64.90;;;;;;5025926;28;20033;-50
2023/06/19 07:16:01;;;;;;;7.82;7.03;;;23.40;64.60;;;;;;5023102;28;20434;-48
2023/06/19 07:18:30;;;;;;;8.38;6.53;;;23.60;65.60;;;;;;5024050;28;20553;-50
2023/06/19 07:20:57;;;;;;;9.52;7.43;;;23.70;65.20;;;;;;5028670;28;20064;-52
2023/06/19 07:23:23;;;;;;;7.35;6.65;;;24.00;64.50;;;;;;5031529;28;20104;-48
2023/06/19 07:25:50;;;;;;;7.68;6.90;;;24.10;64.20;;;;;;5031187;28;20514;-49
2023/06/19 07:28:19;;;;;;;7.72;6.97;;;24.30;63.70;;;;;;5019611;28;20056;-49
2023/06/19 07:30:47;;;;;;;8.43;6.65;;;24.60;64.40;;;;;;5021754;28;20033;-48
2023/06/19 07:33:14;;;;;;;8.75;7.30;;;24.80;62.50;;;;;;5030757;28;20524;-49
2023/06/19 07:35:44;;;;;;;9.02;8.10;;;24.90;61.70;;;;;;5016007;28;20371;-50
2023/06/19 07:38:16;;;;;;;8.73;6.70;;;25.30;60.20;;;;;;5026937;28;20104;-49
2023/06/19 07:40:46;;;;;;;7.95;7.25;;;25.60;60.00;;;;;;5031568;28;20029;-50
2023/06/19 07:43:14;;;;;;;7.32;6.63;;;25.90;59.30;;;;;;5030708;28;20030;-48
2023/06/19 07:45:39;;;;;;;7.95;6.40;;;26.50;58.30;;;;;;5028537;28;20113;-50
2023/06/19 07:48:06;;;;;;;8.85;6.70;;;26.90;57.30;;;;;;5030093;28;20108;-53
2023/06/19 07:50:35;;;;;;;7.22;6.53;;;27.10;55.60;;;;;;5026998;28;20036;-49
2023/06/19 07:53:02;;;;;;;6.95;6.35;;;27.40;54.60;;;;;;5026644;28;20029;-50
2023/06/19 07:55:30;;;;;;;11.00;6.90;;;27.40;54.50;;;;;;5029706;28;20459;-51
2023/06/19 07:57:56;;;;;;;7.18;6.47;;;27.40;54.00;;;;;;5030348;28;20041;-51
2023/06/19 08:00:24;;;;;;;6.30;5.20;;;27.70;53.00;;;;;;5031095;28;20037;-52
2023/06/19 08:02:51;;;;;;;7.93;6.50;;;27.90;53.30;;;;;;5008534;28;20061;-53
2023/06/19 08:05:18;;;;;;;6.50;5.82;;;27.90;54.00;;;;;;5030360;28;20056;-52
2023/06/19 08:07:46;;;;;;;6.93;6.32;;;28.20;53.30;;;;;;5032018;28;20037;-50
2023/06/19 08:10:18;;;;;;;6.65;5.93;;;27.90;52.80;;;;;;5029065;28;20029;-48
2023/06/19 08:12:44;;;;;;;6.65;6.00;;;27.60;53.60;;;;;;5025408;28;20091;-51
2023/06/19 08:15:13;;;;;;;7.20;5.60;;;27.00;55.10;;;;;;5022319;28;20121;-55
2023/06/19 08:17:42;;;;;;;6.43;5.30;;;26.80;56.10;;;;;;5026299;28;20017;-52
2023/06/19 08:20:09;;;;;;;9.50;5.78;;;26.50;56.90;;;;;;5022430;28;20467;-48
2023/06/19 08:22:37;;;;;;;7.15;5.10;;;26.30;57.50;;;;;;5033030;28;20041;-49
2023/06/19 08:25:06;;;;;;;5.97;5.30;;;26.30;58.00;;;;;;5027015;28;20037;-53
2023/06/19 08:27:34;;;;;;;;;;;26.10;58.30;;;;;;5034186;28;20035;-50
2023/06/19 08:30:03;;;;;;;6.22;5.63;;;25.80;59.50;;;;;;5034779;28;20056;-50
2023/06/19 08:32:29;;;;;;;6.57;5.30;;;25.60;59.80;;;;;;5023459;28;20026;-53
2023/06/19 08:34:56;;;;;;;7.32;5.85;;;25.40;60.50;;;;;;5029902;28;20033;-48
2023/06/19 08:37:25;;;;;;;6.75;5.15;;;25.40;61.30;;;;;;5027062;28;20087;-49
2023/06/19 08:39:52;;;;;;;;;;;25.50;60.80;;;;;;5033127;28;20037;-51
2023/06/19 08:42:18;;;;;;;6.53;5.93;;;25.90;61.70;;;;;;5031946;28;20438;-48
2023/06/19 08:44:43;;;;;;;8.00;5.95;;;26.00;60.40;;;;;;5031961;28;20053;-49
2023/06/19 08:47:09;;;;;;;6.95;5.10;;;26.20;59.40;;;;;;5029074;28;20410;-49
2023/06/19 08:49:36;;;;;;;6.43;5.40;;;26.30;60.60;;;;;;5028994;28;20057;-52
2023/06/19 08:52:03;;;;;;;7.90;6.03;;;26.40;60.10;;;;;;5031659;28;20540;-49
2023/06/19 08:54:31;;;;;;;9.65;5.85;;;26.40;59.20;;;;;;5019431;28;20041;-50
2023/06/19 08:57:01;;;;;;;6.13;5.53;;;26.30;59.60;;;;;;5027441;28;20091;-49
2023/06/19 08:59:28;;;;;;;5.32;4.70;;;26.40;58.90;;;;;;5032129;28;20064;-50
2023/06/19 09:01:57;;;;;;;4.82;4.32;;;26.10;60.20;;;;;;5031876;28;20479;-50
2023/06/19 09:04:27;;;;;;;11.15;5.35;;;26.10;61.70;;;;;;5038266;28;20033;-51
2023/06/19 09:07:15;;;;;;;4.97;4.18;;;25.90;62.60;;;;;;5029925;28;20103;-48
2023/06/19 09:09:57;;;;;;;4.63;3.25;;;25.90;63.70;;;;;;5026679;28;20033;-52
2023/06/19 09:12:24;;;;;;;4.95;3.00;;;25.60;62.50;;;;;;5028282;28;20572;-53
2023/06/19 09:14:52;;;;;;;3.20;2.60;;;25.60;63.90;;;;;;5029202;28;20067;-51
2023/06/19 09:17:21;;;;;;;6.28;3.33;;;25.60;63.70;;;;;;5035457;28;20455;-53
2023/06/19 09:19:52;;;;;;;5.03;2.80;;;25.60;63.50;;;;;;5023365;28;20095;-49
2023/06/19 09:22:21;;;;;;;4.78;3.00;;;25.50;64.60;;;;;;5039675;28;20037;-54
2023/06/19 09:24:48;;;;;;;6.40;3.28;;;25.30;63.90;;;;;;5031070;28;20512;-52
2023/06/19 09:27:20;;;;;;;3.95;3.00;;;25.10;64.80;;;;;;5030369;28;20056;-49
2023/06/19 09:29:52;;;;;;;4.07;3.28;;;24.90;66.30;;;;;;5028586;28;20026;-52
2023/06/19 09:32:42;;;;;;;4.03;3.25;;;24.60;66.60;;;;;;5025870;28;20022;-48
2023/06/19 09:35:11;;;;;;;4.88;3.28;;;24.50;67.50;;;;;;5024658;28;20064;-51
2023/06/19 09:37:40;;;;;;;5.65;3.40;;;24.20;68.00;;;;;;5027807;28;20799;-49
2023/06/19 09:40:14;;;;;;;3.40;2.63;;;23.90;68.80;;;;;;5029212;28;20120;-52
2023/06/19 09:42:44;;;;;;;5.03;3.53;;;23.70;70.10;;;;;;5032820;28;20120;-50
2023/06/19 09:45:18;;;;;;;4.00;3.58;;;23.40;71.50;;;;;;5032299;28;20095;-49
2023/06/19 09:47:51;;;;;;;4.80;4.35;;;23.20;72.80;;;;;;5030151;28;20045;-49
2023/06/19 09:50:22;;;;;;;5.65;4.75;;;22.80;75.10;;;;;;5030882;28;20029;-49
2023/06/19 09:52:51;;;;;;;6.03;4.68;;;22.40;76.90;;;;;;5033058;28;20111;-48
2023/06/19 09:55:19;;;;;;;6.38;5.32;;;22.30;78.40;;;;;;5039579;28;20033;-47
2023/06/19 09:57:49;;;;;;;7.38;6.68;;;22.20;80.60;;;;;;5030933;28;20155;-46
2023/06/19 10:00:21;;;;;;;7.80;7.00;;;21.90;82.20;;;;;;5029116;28;20119;-48
2023/06/19 10:02:50;;;;;;;9.70;6.97;;;21.70;83.10;;;;;;5033593;28;20025;-47
2023/06/19 10:05:19;;;;;;;7.93;7.13;;;21.50;83.80;;;;;;5031667;28;20363;-46
2023/06/19 10:07:46;;;;;;;7.50;6.72;;;21.40;84.40;;;;;;5030402;28;20291;-45
2023/06/19 10:10:34;;;;;;;9.27;7.72;;;21.40;84.60;;;;;;5037208;28;20124;-46
2023/06/19 10:13:16;;;;;;;9.55;6.75;;;21.40;85.10;;;;;;5028370;28;20017;-48
2023/06/19 10:15:47;;;;;;;7.97;7.18;;;21.40;85.10;;;;;;5035513;28;20077;-48
2023/06/19 10:18:18;;;;;;;11.00;9.65;;;21.40;85.10;;;;;;5028286;28;20141;-47
2023/06/19 10:20:46;;;;;;;15.73;8.80;;;21.40;84.80;;;;;;5031066;28;20484;-51
2023/06/19 10:23:22;;;;;;;9.50;8.60;;;21.40;85.30;;;;;;5030230;28;20025;-46
2023/06/19 10:25:56;;;;;;;8.77;7.97;;;21.30;85.30;;;;;;5031450;28;21376;-47
2023/06/19 10:28:33;;;;;;;9.57;8.68;;;21.40;85.60;;;;;;5031816;28;20411;-47
2023/06/19 10:31:17;;;;;;;12.00;8.93;;;21.40;85.60;;;;;;5030058;28;20128;-46
2023/06/19 10:33:44;;;;;;;9.65;8.65;;;21.40;85.30;;;;;;5033856;28;20061;-49
2023/06/19 10:36:18;;;;;;;9.50;8.60;;;21.40;85.10;;;;;;5032617;28;20029;-52
2023/06/19 10:38:49;;;;;;;9.73;8.82;;;21.40;84.90;;;;;;5030214;28;20042;-47
2023/06/19 10:41:35;;;;;;;9.18;8.27;;;21.50;85.00;;;;;;5033628;28;20025;-49
2023/06/19 10:44:03;;;;;;;9.77;8.88;;;21.70;84.40;;;;;;5032248;28;20045;-51
2023/06/19 10:46:35;;;;;;;;;;;21.80;84.40;;;;;;5037164;28;20048;-50
2023/06/19 10:49:04;;;;;;;8.93;8.05;;;21.80;84.40;;;;;;5031832;28;19924;-49
2023/06/19 10:51:41;;;;;;;10.38;9.38;;;21.90;84.30;;;;;;5031886;28;20099;-47
2023/06/19 10:54:09;;;;;;;12.13;10.93;;;22.00;83.90;;;;;;5023260;28;20037;-53
2023/06/19 10:56:36;;;;;;;10.50;9.60;;;22.10;83.20;;;;;;5030875;28;20054;-52
2023/06/19 10:59:09;;;;;;;9.23;8.38;;;22.00;83.00;;;;;;5030077;28;20333;-48
2023/06/19 11:01:53;;;;;;;8.65;7.85;;;22.00;82.50;;;;;;5029035;28;20029;-50
2023/06/19 11:04:23;;;;;;;7.32;6.65;;;21.90;82.10;;;;;;5028788;28;20029;-48
2023/06/19 11:06:51;;;;;;;7.45;6.75;;;21.90;81.70;;;;;;5034610;28;20099;-50
2023/06/19 11:09:19;;;;;;;6.55;5.60;;;21.90;80.10;;;;;;5023338;28;20101;-51
2023/06/19 11:11:49;;;;;;;7.72;6.20;;;21.90;80.60;;;;;;5025348;28;20048;-51
2023/06/19 11:14:17;;;;;;;6.75;5.72;;;22.00;80.20;;;;;;5038725;28;20034;-48
2023/06/19 11:16:47;;;;;;;11.50;7.72;;;22.10;80.20;;;;;;5032105;28;20043;-50
2023/06/19 11:19:29;;;;;;;14.00;6.50;;;22.10;78.90;;;;;;5035127;28;20033;-50
2023/06/19 11:21:57;;;;;;;7.20;5.95;;;22.30;78.40;;;;;;5030976;28;20125;-51
2023/06/19 11:24:27;;;;;;;7.03;6.33;;;22.40;76.90;;;;;;5031260;28;20506;-48
2023/06/19 11:26:58;;;;;;;8.32;6.20;;;22.60;76.50;;;;;;5030157;28;20108;-50
2023/06/19 11:29:29;;;;;;;6.72;6.03;;;22.70;76.10;;;;;;5028781;28;20061;-51
2023/06/19 11:32:24;;;;;;;6.55;5.80;;;22.90;76.80;;;;;;5027831;28;20573;-54
2023/06/19 11:34:53;;;;;;;8.20;5.07;;;22.90;75.20;;;;;;5026706;28;20030;-48
2023/06/19 11:37:23;;;;;;;7.20;6.50;;;23.10;75.40;;;;;;5022897;28;20025;-52
2023/06/19 11:39:52;;;;;;;6.68;5.22;;;23.10;74.50;;;;;;5021953;28;20112;-51
2023/06/19 11:42:20;;;;;;;6.50;5.40;;;23.20;75.40;;;;;;5034220;28;20033;-52
2023/06/19 11:45:08;;;;;;;6.35;4.68;;;23.20;74.70;;;;;;5024975;28;20041;-51
2023/06/19 11:47:37;;;;;;;7.85;5.40;;;23.30;74.30;;;;;;5027323;28;20029;-49
2023/06/19 11:50:07;;;;;;;5.45;4.75;;;23.40;73.40;;;;;;5027052;28;20031;-52
2023/06/19 11:52:35;;;;;;;6.60;4.78;;;23.70;73.50;;;;;;5031433;28;20053;-52
2023/06/19 11:55:06;;;;;;;8.05;4.55;;;23.90;72.30;;;;;;5036205;28;20052;-53
2023/06/19 11:57:33;;;;;;;7.13;5.30;;;24.10;71.60;;;;;;5032055;28;20021;-52
2023/06/19 11:59:59;;;;;;;5.93;4.95;;;24.30;70.70;;;;;;5037048;28;20416;-52
2023/06/19 12:02:24;;;;;;;7.35;4.80;;;24.40;70.20;;;;;;5029996;28;20120;-51
2023/06/19 12:04:50;;;;;;;5.90;5.30;;;24.50;69.70;;;;;;5031703;28;20172;-51
2023/06/19 12:07:19;;;;;;;6.28;3.92;;;24.60;68.40;;;;;;5027367;28;20029;-49
2023/06/19 12:09:46;;;;;;;6.13;4.35;;;24.70;68.10;;;;;;5024674;28;20037;-50
2023/06/19 12:12:15;;;;;;;5.20;4.70;;;25.10;68.30;;;;;;5028227;28;21629;-49
2023/06/19 12:14:43;;;;;;;5.53;4.45;;;25.30;65.60;;;;;;5035119;28;20045;-49
2023/06/19 12:17:10;;;;;;;5.82;3.67;;;25.00;64.70;;;;;;5029480;28;20028;-50
2023/06/19 12:19:38;;;;;;;7.18;4.82;;;24.90;66.30;;;;;;5022465;28;20112;-54
2023/06/19 12:22:05;;;;;;;5.20;4.68;;;24.80;64.80;;;;;;5031984;28;20059;-50
2023/06/19 12:24:32;;;;;;;8.88;4.82;;;24.70;64.40;;;;;;5024749;28;20032;-51
2023/06/19 12:26:59;;;;;;;5.55;4.00;;;25.00;65.60;;;;;;5027025;28;20367;-48
2023/06/19 12:29:26;;;;;;;6.10;4.47;;;25.20;64.50;;;;;;5037833;28;20048;-52
2023/06/19 12:31:53;;;;;;;6.10;4.43;;;25.30;63.50;;;;;;5030182;28;20358;-50
2023/06/19 12:34:20;;;;;;;5.57;5.00;;;25.50;63.60;;;;;;5033892;28;20021;-52
2023/06/19 12:36:46;;;;;;;6.47;5.25;;;25.30;60.90;;;;;;5037049;28;20035;-51
2023/06/19 12:39:16;;;;;;;7.78;5.05;;;25.40;61.50;;;;;;5026378;28;20108;-51
2023/06/19 12:41:47;;;;;;;7.20;4.30;;;25.60;60.20;;;;;;5034444;28;20458;-52
2023/06/19 12:44:14;;;;;;;6.57;4.82;;;25.40;59.90;;;;;;5029648;28;20505;-51
2023/06/19 12:46:43;;;;;;;7.93;4.95;;;25.40;59.60;;;;;;5030109;28;20490;-48
2023/06/19 12:49:09;;;;;;;6.78;4.32;;;25.60;61.00;;;;;;5037025;28;20029;-48
2023/06/19 12:51:38;;;;;;;6.47;4.88;;;25.50;59.80;;;;;;5031421;28;20036;-50
2023/06/19 12:54:05;;;;;;;;;;;25.20;58.10;;;;;;5025704;28;20640;-48
2023/06/19 12:56:32;;;;;;;5.50;3.95;;;25.10;59.50;;;;;;5026844;28;19909;-48